METAR Data
IDs: Format: Raw Decoded Include TAF

Data at: 1200 UTC 23 Sep 2018

KAJZ 231155Z AUTO 06006KT 10SM CLR 13/M04 A3014 RMK AO2 T01291038 10165 20122
KAJZ 231135Z AUTO 05007KT 10SM CLR 13/M04 A3014 RMK AO2 T01261038
KAJZ 231115Z AUTO 07003KT 10SM CLR 13/M03 A3014 RMK AO2 T01251035
KAJZ 231055Z AUTO 08005KT 10SM CLR 13/M04 A3014 RMK AO2 T01281041
KAJZ 231035Z AUTO 05006KT 10SM CLR 13/M04 A3014 RMK AO2 T01321040
KAJZ 231015Z AUTO 07009KT 10SM CLR 14/M04 A3014 RMK AO2 T01401040
KAJZ 230955Z AUTO 09008KT 10SM CLR 14/M04 A3014 RMK AO2 T01411041
KAJZ 230935Z AUTO 06007KT 10SM CLR 14/M04 A3014 RMK AO2 T01351042
KAJZ 230915Z AUTO 08005KT 10SM CLR 13/M04 A3014 RMK AO2 T01331045
KAJZ 230855Z AUTO 05007KT 10SM CLR 15/M04 A3014 RMK AO2 T01451042
KAJZ 230835Z AUTO 06004KT 10SM CLR 15/M04 A3014 RMK AO2 T01521044
KAJZ 230815Z AUTO 07010KT 10SM CLR 15/M04 A3014 RMK AO2 T01501045
KAJZ 230755Z AUTO 07006KT 10SM CLR 15/M04 A3014 RMK AO2 T01471037
KAJZ 230735Z AUTO 09009KT 10SM CLR 15/M04 A3014 RMK AO2 T01511040
KAJZ 230715Z AUTO 10007KT 10SM CLR 16/M04 A3014 RMK AO2 T01561041
KAJZ 230655Z AUTO 05006KT 10SM CLR 16/M04 A3014 RMK AO2 T01551040
KAJZ 230635Z AUTO 05008KT 10SM CLR 16/M04 A3014 RMK AO2 T01551042
KAJZ 230615Z AUTO 08007KT 10SM CLR 16/M06 A3014 RMK AO2 T01571058
KAJZ 230555Z AUTO 36005KT 10SM CLR 16/M02 A3014 RMK AO2 T01611021 10293 20157 403150074
KAJZ 230535Z AUTO 03007KT 10SM CLR 16/M04 A3014 RMK AO2 T01591039
KAJZ 230515Z AUTO 04005KT 10SM CLR 17/M03 A3015 RMK AO2 T01661029
KAJZ 230455Z AUTO 03007KT 10SM CLR 16/M02 A3014 RMK AO2 T01631023
KAJZ 230435Z AUTO 04006KT 10SM CLR 18/M05 A3014 RMK AO2 T01771055
KAJZ 230415Z AUTO 06005KT 10SM CLR 17/M01 A3013 RMK AO2 T01681012
KAJZ 230355Z AUTO 03003KT 7SM CLR 18/M02 A3013 RMK AO2 T01791021
KAJZ 230335Z AUTO 06007KT 7SM CLR 20/M04 A3012 RMK AO2 T01951045
KAJZ 230315Z AUTO 09007KT 10SM CLR 19/M06 A3012 RMK AO2 T01911060
KAJZ 230255Z AUTO 00000KT 7SM CLR 20/M05 A3011 RMK AO2 T01951048
KAJZ 230235Z AUTO 00000KT 7SM SCT110 21/M06 A3011 RMK AO2 T02101065
KAJZ 230215Z AUTO 05004KT 7SM BKN120 21/M03 A3010 RMK AO2 T02111035
KAJZ 230155Z AUTO 04005KT 7SM BKN120 23/M03 A3010 RMK AO2 T02341031
KAJZ 230135Z AUTO 21004KT 7SM SCT120 25/M04 A3009 RMK AO2 T02491045
KAJZ 230115Z AUTO 00000KT 5SM HZ CLR 26/M06 A3009 RMK AO2 T02621065
KAJZ 230055Z AUTO 00000KT 7SM CLR 28/M06 A3009 RMK AO2 T02781065
KAJZ 230035Z AUTO 00000KT 7SM CLR 29/M06 A3009 RMK AO2 T02851063
KAJZ 230015Z AUTO 00000KT 7SM CLR 29/M06 A3009 RMK AO2 T02901063
KAJZ 222355Z AUTO 00000KT 5SM HZ CLR 29/M07 A3010 RMK AO2 T02941067 10315 20257
KAJZ 222335Z AUTO 30005KT 7SM CLR 30/M06 A3010 RMK AO2 T02971065
KAJZ 222315Z AUTO 00000KT 10SM CLR 30/M06 A3010 RMK AO2 T03011065
KAJZ 222255Z AUTO 00000KT 7SM CLR 30/M07 A3010 RMK AO2 T03041066
KAJZ 222235Z AUTO 13004KT 7SM CLR 31/M05 A3011 RMK AO2 T03071055
KAJZ 222215Z AUTO 00000KT 7SM CLR 31/M06 A3012 RMK AO2 T03081065
KAJZ 222155Z AUTO 20006KT 7SM CLR 31/M06 A3013 RMK AO2 T03091056
KAJZ 222135Z AUTO 00000KT 10SM CLR 31/M06 A3014 RMK AO2 T03081057
KAJZ 222115Z AUTO 15005KT 7SM CLR 32/M06 A3015 RMK AO2 T03151060
KAJZ 222055Z AUTO 00000KT 7SM CLR 31/M05 A3016 RMK AO2 T03071050
KAJZ 222035Z AUTO 00000KT 7SM CLR 30/M07 A3017 RMK AO2 T03011068
KAJZ 222015Z AUTO 00000KT 7SM CLR 30/M05 A3018 RMK AO2 T03001055
KAJZ 221955Z AUTO 00000KT 7SM CLR 29/M04 A3019 RMK AO2 T02921044
KAJZ 221935Z AUTO 17003KT 10SM CLR 29/M03 A3021 RMK AO2 T02901035
KAJZ 221915Z AUTO 16004KT 10SM CLR 28/M02 A3022 RMK AO2 T02821023
KAJZ 221855Z AUTO 15003KT 7SM CLR 27/M02 A3023 RMK AO2 T02741022
KAJZ 221835Z AUTO 16003KT 7SM CLR 27/M03 A3024 RMK AO2 T02661029
KAJZ 221815Z AUTO 12004KT 10SM CLR 27/M04 A3025 RMK AO2 T02661037
KAJZ 221755Z AUTO 00000KT 10SM CLR 26/M05 A3026 RMK AO2 T02571048 10257 20074
KAJZ 221735Z AUTO 11003KT 10SM CLR 25/M06 A3027 RMK AO2 T02471057
KAJZ 221715Z AUTO 00000KT 10SM CLR 23/M06 A3029 RMK AO2 T02311058
KAJZ 221655Z AUTO 04003KT 10SM CLR 22/M05 A3030 RMK AO2 T02161054
KAJZ 221635Z AUTO 06004KT 10SM CLR 20/M06 A3030 RMK AO2 T02041056
KAJZ 221615Z AUTO 05005KT 10SM CLR 19/M05 A3031 RMK AO2 T01931046
KAJZ 221555Z AUTO 09004KT 10SM CLR 18/M05 A3031 RMK AO2 T01751046
KAJZ 221535Z AUTO 06005KT 10SM CLR 17/M05 A3032 RMK AO2 T01671052
KAJZ 221515Z AUTO 07004KT 10SM CLR 16/M05 A3032 RMK AO2 T01571053
KAJZ 221455Z AUTO 06005KT 10SM CLR 14/M05 A3032 RMK AO2 T01431051
KAJZ 221435Z AUTO 07005KT 10SM CLR 13/M05 A3032 RMK AO2 T01281050
KAJZ 221415Z AUTO 05006KT 10SM CLR 11/M06 A3031 RMK AO2 T01141057
KAJZ 221355Z AUTO 08004KT 10SM CLR 11/M06 A3031 RMK AO2 T01071060
KAJZ 221335Z AUTO 03004KT 10SM CLR 09/M05 A3031 RMK AO2 T00861053
KAJZ 221315Z AUTO 03003KT 10SM CLR 08/M04 A3030 RMK AO2 T00781039
KAJZ 221255Z AUTO 00000KT 10SM CLR 08/M05 A3030 RMK AO2 T00751049
KAJZ 221235Z AUTO 00000KT 10SM CLR 08/M04 A3029 RMK AO2 T00781043
KAJZ 221215Z AUTO 00000KT 10SM CLR 09/M06 A3028 RMK AO2 T00901064
KAJZ 221155Z AUTO 04007KT 10SM CLR 09/M06 A3028 RMK AO2 T00871061 10145 20087
KAJZ 221135Z AUTO 03006KT 10SM CLR 10/M06 A3028 RMK AO2 T00951059
KAJZ 221115Z AUTO 06008KT 10SM CLR 10/M07 A3028 RMK AO2 T00981068
KAJZ 221055Z AUTO 04006KT 10SM CLR 11/M05 A3027 RMK AO2 T01111052
KAJZ 221035Z AUTO 02008KT 10SM CLR 11/M06 A3028 RMK AO2 T01051056
KAJZ 221015Z AUTO 02008KT 10SM CLR 11/M05 A3027 RMK AO2 T01061049
KAJZ 220955Z AUTO 06005KT 10SM CLR 12/M06 A3027 RMK AO2 T01241060
KAJZ 220935Z AUTO 12005KT 10SM CLR 11/M06 A3027 RMK AO2 T01131065
KAJZ 220915Z AUTO 08005KT 10SM CLR 11/M07 A3026 RMK AO2 T01111068
KAJZ 220855Z AUTO 06008KT 10SM CLR 13/M06 A3026 RMK AO2 T01271061
KAJZ 220835Z AUTO 07006KT 7SM CLR 12/M06 A3026 RMK AO2 T01211065
KAJZ 220815Z AUTO 06006KT 10SM CLR 12/M07 A3026 RMK AO2 T01231066
KAJZ 220755Z AUTO 08006KT 10SM CLR 13/M07 A3027 RMK AO2 T01341069
KAJZ 220735Z AUTO 05006KT 10SM CLR 13/M07 A3026 RMK AO2 T01311073
KAJZ 220715Z AUTO 04006KT 7SM CLR 14/M07 A3026 RMK AO2 T01361071
KAJZ 220655Z AUTO 05006KT 7SM CLR 13/M07 A3026 RMK AO2 T01321071
KAJZ 220635Z AUTO 06006KT 5SM HZ CLR 15/M07 A3026 RMK AO2 T01451070
KAJZ 220615Z AUTO 08006KT 10SM CLR 14/M08 A3026 RMK AO2 T01361076
KAJZ 220555Z AUTO 10005KT 10SM CLR 15/M07 A3026 RMK AO2 T01451073 10303 20145 403130070
KAJZ 220535Z AUTO 02006KT 10SM CLR 15/M04 A3025 RMK AO2 T01531044
KAJZ 220515Z AUTO 04006KT 10SM CLR 16/M06 A3025 RMK AO2 T01631057
KAJZ 220455Z AUTO 06008KT 10SM CLR 17/M07 A3025 RMK AO2 T01651069
KAJZ 220435Z AUTO 04007KT 10SM CLR 17/M07 A3024 RMK AO2 T01661071
KAJZ 220415Z AUTO 04004KT 10SM CLR 17/M05 A3023 RMK AO2 T01681046
KAJZ 220355Z AUTO 04004KT 7SM CLR 18/M06 A3023 RMK AO2 T01751057
KAJZ 220335Z AUTO 06006KT 10SM CLR 19/M07 A3022 RMK AO2 T01881073
KAJZ 220315Z AUTO 05006KT 7SM CLR 20/M07 A3021 RMK AO2 T01971069
KAJZ 220255Z AUTO 04005KT 7SM CLR 21/M08 A3019 RMK AO2 T02101082
KAJZ 220235Z AUTO 06006KT 5SM HZ CLR 21/M08 A3018 RMK AO2 T02071082
KAJZ 220215Z AUTO 02003KT 7SM CLR 23/M08 A3016 RMK AO2 T02261076
KAJZ 220155Z AUTO 29004KT 7SM CLR 25/M09 A3015 RMK AO2 T02511095
KAJZ 220135Z AUTO 25005KT 7SM CLR 26/M09 A3015 RMK AO2 T02621094
KAJZ 220115Z AUTO 26008KT 7SM CLR 27/M09 A3014 RMK AO2 T02671093
KAJZ 220055Z AUTO 25003KT 5SM HZ CLR 28/M09 A3014 RMK AO2 T02761088
KAJZ 220035Z AUTO 27003KT 7SM CLR 30/M11 A3013 RMK AO2 T02951115
KAJZ 220015Z AUTO 27004KT 5SM HZ CLR 30/M11 A3013 RMK AO2 T03001113